»·PEaware :: N149CD KMHV-KCMA

N149CD :: KMHV-KCMA

FLIGHT INFORMATION

Flight Status: Arrived
Operator: Privately registered:
United States
More flights under this callsign
Pilot: Nathan E. (30132)
Aircraft: CESSNA 172 SKYHAWK
(C172)
More flights by this aircraft type
Origin: KMHV Mojave
United States
Destination: KCMA Camarillo
United States
More flights between these airports :: More routes between these airports
Route: JERID5 JERID V197 PMD V386 FIM
File this flight plan on PilotEdge
Remarks: EDWP6
Altitude:
(Current/Filed)
8,000ft
Speed:
(Current/Filed)
110kts
Departed: 20-Aug-23 07:13 AM
Arrived: 20-Aug-23 07:57 AM
Distance/Time
Traveled:
69nm/0:44
Distance/Time
To Go:
Arrived

Flight Plot

Page will automatically refresh every two minutes.

Flight plan parsing failed; only flown route is shown


Map Options




Map Legend


Flown Route
Filed Route
Departure Airport
Arrival Airport
Navaid (VOR, NDB)
Fix

Horizontal Profiles

Position Reports

Time Latitude Longitude Heading Altitude Ground
Speed
20-Aug-23 06:44 35.056853 -118.157862 0 2762ft 0kts
20-Aug-23 06:45 35.056853 -118.157862 0 2762ft 0kts
20-Aug-23 06:46 35.056853 -118.157862 0 2762ft 0kts
20-Aug-23 06:47 35.056853 -118.157862 0 2762ft 0kts
20-Aug-23 06:48 35.056853 -118.157862 0 2762ft 0kts
20-Aug-23 06:49 35.056853 -118.157862 0 2762ft 0kts
20-Aug-23 06:50 35.056853 -118.157862 0 2762ft 0kts
20-Aug-23 06:51 35.056853 -118.157862 0 2762ft 0kts
20-Aug-23 06:52 35.056853 -118.157862 0 2762ft 0kts
20-Aug-23 06:53 35.056853 -118.157862 0 2762ft 0kts
20-Aug-23 06:54 35.056853 -118.157862 0 2762ft 0kts
20-Aug-23 06:55 35.056853 -118.157862 0 2762ft 0kts
20-Aug-23 06:56 35.056853 -118.157862 0 2762ft 0kts
20-Aug-23 06:57 35.056853 -118.157862 0 2762ft 0kts
20-Aug-23 06:58 35.056853 -118.157862 0 2762ft 0kts
20-Aug-23 06:59 35.056853 -118.157862 0 2762ft 0kts
20-Aug-23 07:00 35.057112 -118.157844 2 2763ft 0kts
20-Aug-23 07:01 35.057112 -118.157844 2 2763ft 0kts
20-Aug-23 07:02 35.057112 -118.157844 2 2763ft 0kts
20-Aug-23 07:03 35.057112 -118.157844 2 2763ft 0kts
20-Aug-23 07:04 35.057611 -118.157147 90 2762ft 11kts
20-Aug-23 07:05 35.057598 -118.152465 89 2752ft 17kts
20-Aug-23 07:06 35.057043 -118.148151 134 2740ft 13kts
20-Aug-23 07:07 35.053394 -118.143735 134 2722ft 19kts
20-Aug-23 07:07 35.050254 -118.139932 134 2707ft 18kts
20-Aug-23 07:09 35.046483 -118.135368 133 2691ft 19kts
20-Aug-23 07:10 35.044196 -118.131932 58 2680ft 0kts
20-Aug-23 07:11 35.044196 -118.131931 58 2680ft 0kts
20-Aug-23 07:12 35.044249 -118.131834 54 2680ft 3kts
20-Aug-23 07:12 35.047501 -118.134287 316 2691ft 57kts
20-Aug-23 07:13 35.064541 -118.153337 323 3216ft 84kts
20-Aug-23 07:14 35.073746 -118.180753 317 3845ft 96kts
20-Aug-23 07:16 35.059669 -118.210656 216 4751ft 94kts
20-Aug-23 07:17 35.039289 -118.232053 216 5444ft 94kts
20-Aug-23 07:17 35.021725 -118.250611 216 6003ft 95kts
20-Aug-23 07:18 35.000922 -118.272827 216 6626ft 97kts
20-Aug-23 07:19 34.977582 -118.288186 203 7200ft 97kts
20-Aug-23 07:20 34.954819 -118.306620 208 7745ft 100kts
20-Aug-23 07:22 34.928300 -118.329788 208 8353ft 101kts
20-Aug-23 07:22 34.909316 -118.346450 206 8769ft 101kts
20-Aug-23 07:23 34.886960 -118.367173 208 9251ft 102kts
20-Aug-23 07:24 34.865051 -118.388483 207 9718ft 101kts
20-Aug-23 07:25 34.842630 -118.410263 208 9989ft 112kts
20-Aug-23 07:26 34.816956 -118.435361 209 9987ft 122kts
20-Aug-23 07:27 34.790229 -118.461495 209 9985ft 124kts
20-Aug-23 07:28 34.763827 -118.487283 209 10037ft 117kts
20-Aug-23 07:29 34.738769 -118.511578 209 10149ft 123kts
20-Aug-23 07:30 34.712001 -118.537654 209 10135ft 124kts
20-Aug-23 07:31 34.684203 -118.564676 210 10107ft 126kts
20-Aug-23 07:32 34.656281 -118.591796 210 10082ft 127kts
20-Aug-23 07:33 34.628509 -118.618744 211 10055ft 127kts
20-Aug-23 07:34 34.600821 -118.645584 211 10023ft 128kts
20-Aug-23 07:35 34.572925 -118.672606 211 9984ft 127kts
20-Aug-23 07:36 34.543480 -118.701125 212 9521ft 138kts
20-Aug-23 07:37 34.513403 -118.730231 213 9015ft 139kts
20-Aug-23 07:38 34.483514 -118.749828 180 8889ft 116kts
20-Aug-23 07:39 34.448578 -118.756814 182 8397ft 131kts
20-Aug-23 07:40 34.412292 -118.764287 183 7892ft 132kts
20-Aug-23 07:41 34.375627 -118.771820 184 7385ft 133kts
20-Aug-23 07:42 34.338559 -118.779430 184 6874ft 133kts
20-Aug-23 07:43 34.305362 -118.785163 185 6361ft 94kts
20-Aug-23 07:44 34.279683 -118.788889 186 5606ft 97kts
20-Aug-23 07:45 34.251819 -118.792928 187 4840ft 100kts
20-Aug-23 07:46 34.222913 -118.797114 189 4071ft 97kts
20-Aug-23 07:47 34.212204 -118.825465 261 3639ft 90kts
20-Aug-23 07:48 34.211685 -118.856247 265 3374ft 83kts
20-Aug-23 07:49 34.211942 -118.888745 266 3152ft 97kts
20-Aug-23 07:50 34.212191 -118.921738 267 2714ft 99kts
20-Aug-23 07:51 34.212534 -118.956179 268 2183ft 101kts
20-Aug-23 07:52 34.212852 -118.990549 268 1628ft 99kts
20-Aug-23 07:53 34.213139 -119.023863 271 1094ft 97kts
20-Aug-23 07:54 34.213379 -119.050317 270 669ft 67kts
20-Aug-23 07:55 34.213560 -119.072070 270 301ft 61kts
20-Aug-23 07:56 34.213568 -119.090093 240 69ft 20kts
20-Aug-23 07:57 34.210983 -119.090239 269 68ft 12kts
20-Aug-23 07:58 34.210775 -119.091631 4 66ft 0kts

Navigation Log

Ident Type
Flight plan parsing failed, navigation log unavailable